sensor_id;sensor_type;location;lat;lon;timestamp;pressure;altitude;pressure_sealevel;temperature;humidity
77333;BME280;66408;51.326;12.070;2023-08-24T00:01:08;101017.19;;;19.62;69.56
77333;BME280;66408;51.326;12.070;2023-08-24T00:03:36;101003.63;;;19.57;69.43
77333;BME280;66408;51.326;12.070;2023-08-24T00:06:04;101011.34;;;19.52;68.75
77333;BME280;66408;51.326;12.070;2023-08-24T00:08:30;101009.28;;;19.49;68.43
77333;BME280;66408;51.326;12.070;2023-08-24T00:10:58;101010.63;;;19.43;68.94
77333;BME280;66408;51.326;12.070;2023-08-24T00:13:24;101009.25;;;19.36;69.80
77333;BME280;66408;51.326;12.070;2023-08-24T00:15:53;101005.91;;;19.31;69.73
77333;BME280;66408;51.326;12.070;2023-08-24T00:18:20;100999.59;;;19.30;69.70
77333;BME280;66408;51.326;12.070;2023-08-24T00:20:50;100991.31;;;19.30;68.82
77333;BME280;66408;51.326;12.070;2023-08-24T00:23:17;101005.13;;;19.30;70.13
77333;BME280;66408;51.326;12.070;2023-08-24T00:25:44;101004.44;;;19.33;70.79
77333;BME280;66408;51.326;12.070;2023-08-24T00:28:11;101003.88;;;19.40;70.45
77333;BME280;66408;51.326;12.070;2023-08-24T00:30:37;101002.34;;;19.43;70.40
77333;BME280;66408;51.326;12.070;2023-08-24T00:33:04;101005.91;;;19.43;70.53
77333;BME280;66408;51.326;12.070;2023-08-24T00:35:31;101012.94;;;19.41;70.33
77333;BME280;66408;51.326;12.070;2023-08-24T00:37:58;101008.19;;;19.41;70.85
77333;BME280;66408;51.326;12.070;2023-08-24T00:40:24;101009.38;;;19.40;70.77
77333;BME280;66408;51.326;12.070;2023-08-24T00:42:51;101014.91;;;19.40;70.58
77333;BME280;66408;51.326;12.070;2023-08-24T00:45:18;101009.72;;;19.38;70.61
77333;BME280;66408;51.326;12.070;2023-08-24T00:47:46;101010.41;;;19.35;70.02
77333;BME280;66408;51.326;12.070;2023-08-24T00:50:16;101006.38;;;19.33;69.59
77333;BME280;66408;51.326;12.070;2023-08-24T00:52:43;101004.22;;;19.26;70.44
77333;BME280;66408;51.326;12.070;2023-08-24T00:55:11;101005.59;;;19.20;70.66
77333;BME280;66408;51.326;12.070;2023-08-24T00:57:39;100995.69;;;19.19;70.17
77333;BME280;66408;51.326;12.070;2023-08-24T01:00:08;100995.63;;;19.16;70.08
77333;BME280;66408;51.326;12.070;2023-08-24T01:02:37;101003.75;;;19.12;69.85
77333;BME280;66408;51.326;12.070;2023-08-24T01:05:05;100998.00;;;19.05;70.12
77333;BME280;66408;51.326;12.070;2023-08-24T01:07:33;100995.16;;;19.01;70.60
77333;BME280;66408;51.326;12.070;2023-08-24T01:10:03;101001.00;;;19.00;71.41
77333;BME280;66408;51.326;12.070;2023-08-24T01:12:42;100998.81;;;19.06;71.66
77333;BME280;66408;51.326;12.070;2023-08-24T01:15:15;100993.41;;;19.09;71.43
77333;BME280;66408;51.326;12.070;2023-08-24T01:17:46;100993.88;;;19.11;71.30
77333;BME280;66408;51.326;12.070;2023-08-24T01:20:15;100999.38;;;19.11;70.91
77333;BME280;66408;51.326;12.070;2023-08-24T01:23:02;100997.09;;;19.13;71.26
77333;BME280;66408;51.326;12.070;2023-08-24T01:25:51;101007.66;;;19.11;71.03
77333;BME280;66408;51.326;12.070;2023-08-24T01:28:19;101004.91;;;19.11;69.80
77333;BME280;66408;51.326;12.070;2023-08-24T01:30:47;101006.25;;;19.05;68.57
77333;BME280;66408;51.326;12.070;2023-08-24T01:33:14;101011.91;;;18.96;69.58
77333;BME280;66408;51.326;12.070;2023-08-24T01:35:41;101010.97;;;18.92;69.35
77333;BME280;66408;51.326;12.070;2023-08-24T01:38:08;101012.47;;;18.90;69.24
77333;BME280;66408;51.326;12.070;2023-08-24T01:43:13;101012.56;;;18.81;70.09
77333;BME280;66408;51.326;12.070;2023-08-24T01:45:44;101014.50;;;18.81;71.16
77333;BME280;66408;51.326;12.070;2023-08-24T01:48:12;101018.41;;;18.80;70.80
77333;BME280;66408;51.326;12.070;2023-08-24T01:50:40;101012.91;;;18.80;70.91
77333;BME280;66408;51.326;12.070;2023-08-24T01:53:08;101020.50;;;18.83;70.66
77333;BME280;66408;51.326;12.070;2023-08-24T01:55:35;101004.75;;;18.83;70.72
77333;BME280;66408;51.326;12.070;2023-08-24T01:58:02;100999.38;;;18.87;70.38
77333;BME280;66408;51.326;12.070;2023-08-24T02:00:29;100994.66;;;18.87;70.47
77333;BME280;66408;51.326;12.070;2023-08-24T02:02:56;100994.66;;;18.87;70.51
77333;BME280;66408;51.326;12.070;2023-08-24T02:05:23;100996.97;;;18.85;70.10
77333;BME280;66408;51.326;12.070;2023-08-24T02:07:53;100989.72;;;18.81;70.70
77333;BME280;66408;51.326;12.070;2023-08-24T02:10:20;100990.53;;;18.81;70.67
77333;BME280;66408;51.326;12.070;2023-08-24T02:12:47;100987.75;;;18.81;70.73
77333;BME280;66408;51.326;12.070;2023-08-24T02:15:14;100988.09;;;18.80;70.17
77333;BME280;66408;51.326;12.070;2023-08-24T02:17:40;100991.22;;;18.78;70.82
77333;BME280;66408;51.326;12.070;2023-08-24T02:20:07;100979.84;;;18.80;71.10
77333;BME280;66408;51.326;12.070;2023-08-24T02:22:38;100985.72;;;18.78;71.12
77333;BME280;66408;51.326;12.070;2023-08-24T02:25:05;100983.75;;;18.79;71.40
77333;BME280;66408;51.326;12.070;2023-08-24T02:27:32;100987.41;;;18.83;71.22
77333;BME280;66408;51.326;12.070;2023-08-24T02:29:59;100976.53;;;18.86;71.16
77333;BME280;66408;51.326;12.070;2023-08-24T02:32:27;100986.75;;;18.86;71.15
77333;BME280;66408;51.326;12.070;2023-08-24T02:34:54;100976.41;;;18.83;71.00
77333;BME280;66408;51.326;12.070;2023-08-24T02:37:21;100973.66;;;18.83;70.62
77333;BME280;66408;51.326;12.070;2023-08-24T02:39:47;100983.53;;;18.84;68.58
77333;BME280;66408;51.326;12.070;2023-08-24T02:42:14;100980.06;;;18.75;69.10
77333;BME280;66408;51.326;12.070;2023-08-24T02:44:41;100977.88;;;18.68;69.89
77333;BME280;66408;51.326;12.070;2023-08-24T02:47:07;100984.44;;;18.63;69.51
77333;BME280;66408;51.326;12.070;2023-08-24T02:49:34;100973.91;;;18.57;69.83
77333;BME280;66408;51.326;12.070;2023-08-24T02:52:01;100976.09;;;18.51;70.54
77333;BME280;66408;51.326;12.070;2023-08-24T02:54:28;100970.81;;;18.46;70.50
77333;BME280;66408;51.326;12.070;2023-08-24T02:56:54;100977.13;;;18.47;71.21
77333;BME280;66408;51.326;12.070;2023-08-24T02:59:21;100974.38;;;18.47;71.39
77333;BME280;66408;51.326;12.070;2023-08-24T03:01:48;100976.91;;;18.52;72.09
77333;BME280;66408;51.326;12.070;2023-08-24T03:04:15;100972.69;;;18.54;71.01
77333;BME280;66408;51.326;12.070;2023-08-24T03:06:43;100973.03;;;18.53;71.03
77333;BME280;66408;51.326;12.070;2023-08-24T03:09:10;100973.81;;;18.53;71.42
77333;BME280;66408;51.326;12.070;2023-08-24T03:11:37;100969.47;;;18.52;71.77
77333;BME280;66408;51.326;12.070;2023-08-24T03:14:04;100967.94;;;18.55;71.61
77333;BME280;66408;51.326;12.070;2023-08-24T03:16:31;100969.94;;;18.54;71.35
77333;BME280;66408;51.326;12.070;2023-08-24T03:18:57;100969.47;;;18.52;71.39
77333;BME280;66408;51.326;12.070;2023-08-24T03:21:24;100965.75;;;18.48;71.66
77333;BME280;66408;51.326;12.070;2023-08-24T03:23:51;100961.75;;;18.46;70.93
77333;BME280;66408;51.326;12.070;2023-08-24T03:26:19;100961.75;;;18.46;70.40
77333;BME280;66408;51.326;12.070;2023-08-24T03:28:46;100954.84;;;18.40;70.56
77333;BME280;66408;51.326;12.070;2023-08-24T03:31:13;100948.06;;;18.37;70.50
77333;BME280;66408;51.326;12.070;2023-08-24T03:33:40;100954.59;;;18.33;70.19
77333;BME280;66408;51.326;12.070;2023-08-24T03:36:06;100947.38;;;18.28;70.62
77333;BME280;66408;51.326;12.070;2023-08-24T03:38:33;100950.94;;;18.28;71.19
77333;BME280;66408;51.326;12.070;2023-08-24T03:41:01;100946.91;;;18.26;71.09
77333;BME280;66408;51.326;12.070;2023-08-24T03:43:33;100938.19;;;18.24;70.88
77333;BME280;66408;51.326;12.070;2023-08-24T03:46:01;100951.47;;;18.22;71.30
77333;BME280;66408;51.326;12.070;2023-08-24T03:48:28;100938.03;;;18.20;71.35
77333;BME280;66408;51.326;12.070;2023-08-24T03:50:56;100938.50;;;18.22;71.16
77333;BME280;66408;51.326;12.070;2023-08-24T03:53:24;100938.06;;;18.33;71.10
77333;BME280;66408;51.326;12.070;2023-08-24T03:55:51;100942.09;;;18.35;71.13
77333;BME280;66408;51.326;12.070;2023-08-24T03:58:18;100944.28;;;18.29;71.51
77333;BME280;66408;51.326;12.070;2023-08-24T04:00:45;100946.22;;;18.29;71.74
77333;BME280;66408;51.326;12.070;2023-08-24T04:03:12;100952.88;;;18.28;71.33
77333;BME280;66408;51.326;12.070;2023-08-24T04:05:39;100954.13;;;18.30;71.32
77333;BME280;66408;51.326;12.070;2023-08-24T04:08:06;100947.81;;;18.30;71.76
77333;BME280;66408;51.326;12.070;2023-08-24T04:10:35;100950.94;;;18.28;71.68
77333;BME280;66408;51.326;12.070;2023-08-24T04:13:02;100951.75;;;18.29;71.12
77333;BME280;66408;51.326;12.070;2023-08-24T04:15:29;100959.19;;;18.28;71.24
77333;BME280;66408;51.326;12.070;2023-08-24T04:17:55;100962.03;;;18.32;71.12
77333;BME280;66408;51.326;12.070;2023-08-24T04:20:23;100958.75;;;18.39;70.39
77333;BME280;66408;51.326;12.070;2023-08-24T04:22:50;100964.94;;;18.36;71.09
77333;BME280;66408;51.326;12.070;2023-08-24T04:25:16;100962.97;;;18.36;70.96
77333;BME280;66408;51.326;12.070;2023-08-24T04:27:44;100959.91;;;18.38;70.82
77333;BME280;66408;51.326;12.070;2023-08-24T04:30:10;100968.84;;;18.35;70.69
77333;BME280;66408;51.326;12.070;2023-08-24T04:32:39;100971.00;;;18.29;71.00
77333;BME280;66408;51.326;12.070;2023-08-24T04:35:06;100968.25;;;18.29;71.27
77333;BME280;66408;51.326;12.070;2023-08-24T04:37:35;100975.81;;;18.32;71.21
77333;BME280;66408;51.326;12.070;2023-08-24T04:40:01;100974.81;;;18.37;70.72
77333;BME280;66408;51.326;12.070;2023-08-24T04:42:28;100970.25;;;18.41;70.73
77333;BME280;66408;51.326;12.070;2023-08-24T04:44:55;100971.84;;;18.42;70.79
77333;BME280;66408;51.326;12.070;2023-08-24T04:47:24;100978.94;;;18.43;70.66
77333;BME280;66408;51.326;12.070;2023-08-24T04:49:51;100974.13;;;18.40;70.59
77333;BME280;66408;51.326;12.070;2023-08-24T04:52:17;100967.13;;;18.42;70.36
77333;BME280;66408;51.326;12.070;2023-08-24T04:54:44;100968.06;;;18.46;70.44
77333;BME280;66408;51.326;12.070;2023-08-24T04:57:11;100972.88;;;18.49;70.52
77333;BME280;66408;51.326;12.070;2023-08-24T04:59:37;100973.09;;;18.44;70.45
77333;BME280;66408;51.326;12.070;2023-08-24T05:02:04;100970.81;;;18.46;70.54
77333;BME280;66408;51.326;12.070;2023-08-24T05:04:31;100972.88;;;18.49;70.24
77333;BME280;66408;51.326;12.070;2023-08-24T05:06:58;100969.00;;;18.50;70.37
77333;BME280;66408;51.326;12.070;2023-08-24T05:09:25;100971.50;;;18.55;70.47
77333;BME280;66408;51.326;12.070;2023-08-24T05:11:51;100972.47;;;18.59;71.07
77333;BME280;66408;51.326;12.070;2023-08-24T05:14:18;100964.00;;;18.64;71.16
77333;BME280;66408;51.326;12.070;2023-08-24T05:16:45;100956.28;;;18.70;71.03
77333;BME280;66408;51.326;12.070;2023-08-24T05:19:12;100952.41;;;18.71;71.16
77333;BME280;66408;51.326;12.070;2023-08-24T05:21:38;100953.78;;;18.77;71.27
77333;BME280;66408;51.326;12.070;2023-08-24T05:24:05;100952.06;;;18.85;71.27
77333;BME280;66408;51.326;12.070;2023-08-24T05:26:32;100949.19;;;18.93;71.24
77333;BME280;66408;51.326;12.070;2023-08-24T05:28:59;100955.03;;;19.04;71.38
77333;BME280;66408;51.326;12.070;2023-08-24T05:31:26;100954.81;;;19.09;71.32
77333;BME280;66408;51.326;12.070;2023-08-24T05:33:53;100958.50;;;19.13;71.62
77333;BME280;66408;51.326;12.070;2023-08-24T05:36:19;100957.22;;;19.23;71.62
77333;BME280;66408;51.326;12.070;2023-08-24T05:38:46;100955.72;;;19.25;71.32
77333;BME280;66408;51.326;12.070;2023-08-24T05:41:16;100952.84;;;19.34;71.90
77333;BME280;66408;51.326;12.070;2023-08-24T05:43:42;100962.50;;;19.40;71.59
77333;BME280;66408;51.326;12.070;2023-08-24T05:46:10;100951.34;;;19.36;72.36
77333;BME280;66408;51.326;12.070;2023-08-24T05:48:36;100955.78;;;19.41;72.28
77333;BME280;66408;51.326;12.070;2023-08-24T05:51:03;100969.25;;;19.55;72.04
77333;BME280;66408;51.326;12.070;2023-08-24T05:53:32;100962.00;;;19.62;71.51
77333;BME280;66408;51.326;12.070;2023-08-24T05:55:59;100962.09;;;19.66;71.71
77333;BME280;66408;51.326;12.070;2023-08-24T05:58:26;100955.06;;;19.68;71.21
77333;BME280;66408;51.326;12.070;2023-08-24T06:00:59;100962.56;;;19.68;71.23
77333;BME280;66408;51.326;12.070;2023-08-24T06:03:26;100960.41;;;19.61;71.63
77333;BME280;66408;51.326;12.070;2023-08-24T06:05:53;100958.44;;;19.62;71.18
77333;BME280;66408;51.326;12.070;2023-08-24T06:08:19;100966.13;;;19.68;70.90
77333;BME280;66408;51.326;12.070;2023-08-24T06:10:47;100955.41;;;19.67;71.97
77333;BME280;66408;51.326;12.070;2023-08-24T06:13:14;100954.72;;;19.70;71.11
77333;BME280;66408;51.326;12.070;2023-08-24T06:15:42;100946.91;;;19.72;71.07
77333;BME280;66408;51.326;12.070;2023-08-24T06:18:09;100942.66;;;19.75;70.71
77333;BME280;66408;51.326;12.070;2023-08-24T06:20:37;100946.44;;;19.70;70.50
77333;BME280;66408;51.326;12.070;2023-08-24T06:23:03;100949.66;;;19.72;70.84
77333;BME280;66408;51.326;12.070;2023-08-24T06:25:35;100933.09;;;19.72;70.17
77333;BME280;66408;51.326;12.070;2023-08-24T06:28:02;100935.97;;;19.76;70.64
77333;BME280;66408;51.326;12.070;2023-08-24T06:30:30;100922.72;;;19.81;70.62
77333;BME280;66408;51.326;12.070;2023-08-24T06:33:04;100928.34;;;19.85;70.49
77333;BME280;66408;51.326;12.070;2023-08-24T06:35:32;100922.47;;;19.86;70.54
77333;BME280;66408;51.326;12.070;2023-08-24T06:37:59;100923.47;;;19.94;70.90
77333;BME280;66408;51.326;12.070;2023-08-24T06:40:26;100915.28;;;19.97;69.86
77333;BME280;66408;51.326;12.070;2023-08-24T06:42:52;100934.81;;;20.04;69.65
77333;BME280;66408;51.326;12.070;2023-08-24T06:45:20;100933.06;;;20.12;70.21
77333;BME280;66408;51.326;12.070;2023-08-24T06:47:47;100930.47;;;20.19;69.54
77333;BME280;66408;51.326;12.070;2023-08-24T06:50:15;100936.91;;;20.23;69.68
77333;BME280;66408;51.326;12.070;2023-08-24T06:52:42;100932.19;;;20.24;70.10
77333;BME280;66408;51.326;12.070;2023-08-24T06:55:09;100935.94;;;20.31;69.64
77333;BME280;66408;51.326;12.070;2023-08-24T06:57:37;100928.91;;;20.34;69.72
77333;BME280;66408;51.326;12.070;2023-08-24T07:00:04;100932.66;;;20.41;70.42
77333;BME280;66408;51.326;12.070;2023-08-24T07:02:36;100943.91;;;20.49;70.76
77333;BME280;66408;51.326;12.070;2023-08-24T07:05:03;100953.97;;;20.57;70.36
77333;BME280;66408;51.326;12.070;2023-08-24T07:07:35;100953.00;;;20.65;69.87
77333;BME280;66408;51.326;12.070;2023-08-24T07:10:02;100947.31;;;20.73;69.64
77333;BME280;66408;51.326;12.070;2023-08-24T07:12:30;100947.66;;;20.88;70.25
77333;BME280;66408;51.326;12.070;2023-08-24T07:14:57;100952.28;;;20.99;69.22
77333;BME280;66408;51.326;12.070;2023-08-24T07:17:24;100949.94;;;21.17;69.03
77333;BME280;66408;51.326;12.070;2023-08-24T07:19:52;100960.09;;;21.29;68.97
77333;BME280;66408;51.326;12.070;2023-08-24T07:22:19;100963.50;;;21.38;67.66
77333;BME280;66408;51.326;12.070;2023-08-24T07:24:46;100960.66;;;21.54;67.88
77333;BME280;66408;51.326;12.070;2023-08-24T07:27:13;100954.84;;;21.59;67.79
77333;BME280;66408;51.326;12.070;2023-08-24T07:29:40;100953.69;;;21.60;66.86
77333;BME280;66408;51.326;12.070;2023-08-24T07:32:07;100951.38;;;21.62;66.11
77333;BME280;66408;51.326;12.070;2023-08-24T07:34:35;100957.19;;;21.76;66.18
77333;BME280;66408;51.326;12.070;2023-08-24T07:37:02;100954.69;;;21.90;65.12
77333;BME280;66408;51.326;12.070;2023-08-24T07:39:28;100951.22;;;21.93;64.84
77333;BME280;66408;51.326;12.070;2023-08-24T07:41:55;100939.84;;;21.98;65.78
77333;BME280;66408;51.326;12.070;2023-08-24T07:44:22;100932.06;;;22.04;67.14
77333;BME280;66408;51.326;12.070;2023-08-24T07:46:49;100923.09;;;22.10;66.84
77333;BME280;66408;51.326;12.070;2023-08-24T07:49:16;100926.78;;;22.18;66.77
77333;BME280;66408;51.326;12.070;2023-08-24T07:51:42;100911.34;;;22.40;65.02
77333;BME280;66408;51.326;12.070;2023-08-24T07:54:10;100910.91;;;22.61;65.38
77333;BME280;66408;51.326;12.070;2023-08-24T07:56:37;100903.50;;;22.68;64.31
77333;BME280;66408;51.326;12.070;2023-08-24T07:59:04;100901.72;;;22.79;63.27
77333;BME280;66408;51.326;12.070;2023-08-24T08:01:30;100906.19;;;22.84;63.15
77333;BME280;66408;51.326;12.070;2023-08-24T08:03:57;100907.50;;;22.93;63.18
77333;BME280;66408;51.326;12.070;2023-08-24T08:06:24;100897.31;;;23.01;62.22
77333;BME280;66408;51.326;12.070;2023-08-24T08:08:53;100891.00;;;23.04;62.14
77333;BME280;66408;51.326;12.070;2023-08-24T08:11:20;100888.38;;;23.15;63.19
77333;BME280;66408;51.326;12.070;2023-08-24T08:13:47;100890.13;;;23.26;61.86
77333;BME280;66408;51.326;12.070;2023-08-24T08:16:14;100892.91;;;23.26;60.19
77333;BME280;66408;51.326;12.070;2023-08-24T08:18:41;100887.09;;;23.35;58.69
77333;BME280;66408;51.326;12.070;2023-08-24T08:21:16;100885.53;;;23.38;59.04
77333;BME280;66408;51.326;12.070;2023-08-24T08:23:48;100895.50;;;23.42;58.76
77333;BME280;66408;51.326;12.070;2023-08-24T08:26:16;100890.69;;;23.36;59.25
77333;BME280;66408;51.326;12.070;2023-08-24T08:28:42;100892.22;;;23.33;55.39
77333;BME280;66408;51.326;12.070;2023-08-24T08:31:09;100892.31;;;23.40;58.15
77333;BME280;66408;51.326;12.070;2023-08-24T08:33:36;100892.69;;;23.39;58.96
77333;BME280;66408;51.326;12.070;2023-08-24T08:36:04;100893.59;;;23.46;58.81
77333;BME280;66408;51.326;12.070;2023-08-24T08:38:31;100886.75;;;23.40;58.91
77333;BME280;66408;51.326;12.070;2023-08-24T08:41:03;100876.38;;;23.37;57.96
77333;BME280;66408;51.326;12.070;2023-08-24T08:43:31;100877.16;;;23.34;59.82
77333;BME280;66408;51.326;12.070;2023-08-24T08:45:59;100872.72;;;23.29;59.29
77333;BME280;66408;51.326;12.070;2023-08-24T08:48:28;100877.84;;;23.24;58.91
77333;BME280;66408;51.326;12.070;2023-08-24T08:50:57;100880.97;;;23.22;60.04
77333;BME280;66408;51.326;12.070;2023-08-24T08:53:24;100883.69;;;23.19;59.22
77333;BME280;66408;51.326;12.070;2023-08-24T08:55:52;100878.22;;;23.22;60.02
77333;BME280;66408;51.326;12.070;2023-08-24T08:58:23;100873.47;;;23.26;60.44
77333;BME280;66408;51.326;12.070;2023-08-24T09:00:50;100872.72;;;23.29;61.85
77333;BME280;66408;51.326;12.070;2023-08-24T09:03:18;100876.31;;;23.30;61.82
77333;BME280;66408;51.326;12.070;2023-08-24T09:05:46;100878.34;;;23.33;61.87
77333;BME280;66408;51.326;12.070;2023-08-24T09:08:16;100879.16;;;23.37;61.79
77333;BME280;66408;51.326;12.070;2023-08-24T09:10:44;100875.09;;;23.27;61.70
77333;BME280;66408;51.326;12.070;2023-08-24T09:13:11;100867.56;;;23.28;61.92
77333;BME280;66408;51.326;12.070;2023-08-24T09:15:39;100870.69;;;23.23;62.42
77333;BME280;66408;51.326;12.070;2023-08-24T09:18:06;100869.22;;;23.33;62.41
77333;BME280;66408;51.326;12.070;2023-08-24T09:20:34;100873.22;;;23.35;61.47
77333;BME280;66408;51.326;12.070;2023-08-24T09:23:01;100868.84;;;23.34;60.81
77333;BME280;66408;51.326;12.070;2023-08-24T09:25:28;100868.06;;;23.37;61.92
77333;BME280;66408;51.326;12.070;2023-08-24T09:28:04;100857.69;;;23.31;60.73
77333;BME280;66408;51.326;12.070;2023-08-24T09:30:35;100862.00;;;23.28;60.47
77333;BME280;66408;51.326;12.070;2023-08-24T09:33:03;100854.53;;;23.32;59.22
77333;BME280;66408;51.326;12.070;2023-08-24T09:35:33;100850.53;;;23.29;59.97
77333;BME280;66408;51.326;12.070;2023-08-24T09:38:28;100850.44;;;23.52;58.15
77333;BME280;66408;51.326;12.070;2023-08-24T09:40:56;100844.09;;;23.52;58.71
77333;BME280;66408;51.326;12.070;2023-08-24T09:43:23;100852.41;;;23.52;58.59
77333;BME280;66408;51.326;12.070;2023-08-24T09:45:51;100841.75;;;23.54;59.31
77333;BME280;66408;51.326;12.070;2023-08-24T09:48:19;100832.59;;;23.53;59.64
77333;BME280;66408;51.326;12.070;2023-08-24T09:50:48;100819.19;;;23.59;59.29
77333;BME280;66408;51.326;12.070;2023-08-24T09:53:20;100820.06;;;23.67;60.87
77333;BME280;66408;51.326;12.070;2023-08-24T09:56:14;100813.34;;;23.68;58.73
77333;BME280;66408;51.326;12.070;2023-08-24T09:58:43;100794.75;;;23.75;58.62
77333;BME280;66408;51.326;12.070;2023-08-24T10:01:12;100796.41;;;23.80;58.69
77333;BME280;66408;51.326;12.070;2023-08-24T10:03:39;100779.25;;;23.71;58.54
77333;BME280;66408;51.326;12.070;2023-08-24T10:06:08;100777.56;;;23.62;58.90
77333;BME280;66408;51.326;12.070;2023-08-24T10:08:39;100769.19;;;23.55;59.36
77333;BME280;66408;51.326;12.070;2023-08-24T10:11:10;100774.63;;;23.48;58.85
77333;BME280;66408;51.326;12.070;2023-08-24T10:14:15;100780.09;;;23.41;58.93
77333;BME280;66408;51.326;12.070;2023-08-24T10:16:44;100781.28;;;23.40;59.24
77333;BME280;66408;51.326;12.070;2023-08-24T10:19:11;100769.75;;;23.38;61.71
77333;BME280;66408;51.326;12.070;2023-08-24T10:21:39;100755.47;;;23.36;61.63
77333;BME280;66408;51.326;12.070;2023-08-24T10:24:08;100753.06;;;23.35;63.02
77333;BME280;66408;51.326;12.070;2023-08-24T10:26:37;100745.91;;;23.34;62.21
77333;BME280;66408;51.326;12.070;2023-08-24T10:29:06;100747.84;;;23.29;61.28
77333;BME280;66408;51.326;12.070;2023-08-24T10:31:34;100750.63;;;23.29;60.83
77333;BME280;66408;51.326;12.070;2023-08-24T10:34:02;100733.22;;;23.33;60.23
77333;BME280;66408;51.326;12.070;2023-08-24T10:36:29;100722.56;;;23.38;61.33
77333;BME280;66408;51.326;12.070;2023-08-24T10:38:56;100721.84;;;23.45;60.73
77333;BME280;66408;51.326;12.070;2023-08-24T10:41:27;100729.69;;;23.39;60.27
77333;BME280;66408;51.326;12.070;2023-08-24T10:44:04;100725.34;;;23.38;59.83
77333;BME280;66408;51.326;12.070;2023-08-24T10:46:34;100717.59;;;23.54;58.72
77333;BME280;66408;51.326;12.070;2023-08-24T10:49:04;100722.03;;;23.59;60.82
77333;BME280;66408;51.326;12.070;2023-08-24T10:51:31;100722.06;;;23.66;60.49
77333;BME280;66408;51.326;12.070;2023-08-24T10:54:05;100714.19;;;23.72;61.82
77333;BME280;66408;51.326;12.070;2023-08-24T10:56:38;100713.13;;;23.87;60.72
77333;BME280;66408;51.326;12.070;2023-08-24T10:59:20;100704.53;;;24.03;58.70
77333;BME280;66408;51.326;12.070;2023-08-24T11:04:20;100705.41;;;24.17;59.36
77333;BME280;66408;51.326;12.070;2023-08-24T11:09:19;100697.97;;;24.28;58.87
77333;BME280;66408;51.326;12.070;2023-08-24T11:11:57;100694.03;;;24.37;56.92
77333;BME280;66408;51.326;12.070;2023-08-24T11:14:24;100681.75;;;24.34;56.26
77333;BME280;66408;51.326;12.070;2023-08-24T11:17:05;100676.59;;;24.40;57.94
77333;BME280;66408;51.326;12.070;2023-08-24T11:19:49;100676.59;;;24.40;57.95
77333;BME280;66408;51.326;12.070;2023-08-24T11:22:19;100677.34;;;24.29;59.37
77333;BME280;66408;51.326;12.070;2023-08-24T11:24:46;100672.59;;;24.37;58.92
77333;BME280;66408;51.326;12.070;2023-08-24T11:27:13;100671.03;;;24.40;59.34
77333;BME280;66408;51.326;12.070;2023-08-24T11:29:42;100674.19;;;24.31;58.60
77333;BME280;66408;51.326;12.070;2023-08-24T11:32:09;100672.19;;;24.31;59.07
77333;BME280;66408;51.326;12.070;2023-08-24T11:34:36;100679.75;;;24.34;58.63
77333;BME280;66408;51.326;12.070;2023-08-24T11:37:04;100674.63;;;24.40;58.25
77333;BME280;66408;51.326;12.070;2023-08-24T11:39:30;100675.47;;;24.51;58.47
77333;BME280;66408;51.326;12.070;2023-08-24T11:42:02;100686.91;;;24.39;59.28
77333;BME280;66408;51.326;12.070;2023-08-24T11:44:30;100698.00;;;24.32;60.79
77333;BME280;66408;51.326;12.070;2023-08-24T11:47:10;100701.16;;;24.30;60.71
77333;BME280;66408;51.326;12.070;2023-08-24T11:49:37;100691.56;;;24.21;57.99
77333;BME280;66408;51.326;12.070;2023-08-24T11:52:04;100693.56;;;24.24;57.36
77333;BME280;66408;51.326;12.070;2023-08-24T11:54:35;100689.28;;;24.37;59.07
77333;BME280;66408;51.326;12.070;2023-08-24T11:57:08;100691.72;;;24.49;57.90
77333;BME280;66408;51.326;12.070;2023-08-24T11:59:36;100679.91;;;24.59;56.35
77333;BME280;66408;51.326;12.070;2023-08-24T12:02:05;100691.84;;;24.70;56.68
77333;BME280;66408;51.326;12.070;2023-08-24T12:04:41;100695.81;;;24.69;57.02
77333;BME280;66408;51.326;12.070;2023-08-24T12:07:13;100685.50;;;24.74;56.45
77333;BME280;66408;51.326;12.070;2023-08-24T12:09:43;100673.34;;;25.07;54.93
77333;BME280;66408;51.326;12.070;2023-08-24T12:12:15;100675.34;;;25.17;55.40
77333;BME280;66408;51.326;12.070;2023-08-24T12:14:43;100682.53;;;25.32;55.36
77333;BME280;66408;51.326;12.070;2023-08-24T12:17:10;100675.41;;;25.45;53.99
77333;BME280;66408;51.326;12.070;2023-08-24T12:20:01;100672.22;;;25.86;54.15
77333;BME280;66408;51.326;12.070;2023-08-24T12:22:33;100662.63;;;26.26;54.06
77333;BME280;66408;51.326;12.070;2023-08-24T12:24:59;100655.78;;;26.55;54.92
77333;BME280;66408;51.326;12.070;2023-08-24T12:27:26;100664.56;;;26.54;53.77
77333;BME280;66408;51.326;12.070;2023-08-24T12:29:54;100655.41;;;26.50;51.90
77333;BME280;66408;51.326;12.070;2023-08-24T12:32:21;100640.53;;;26.81;50.06
77333;BME280;66408;51.326;12.070;2023-08-24T12:34:52;100643.69;;;26.94;52.25
77333;BME280;66408;51.326;12.070;2023-08-24T12:37:19;100636.50;;;26.86;50.01
77333;BME280;66408;51.326;12.070;2023-08-24T12:39:45;100626.63;;;26.70;48.73
77333;BME280;66408;51.326;12.070;2023-08-24T12:42:12;100631.44;;;26.63;50.87
77333;BME280;66408;51.326;12.070;2023-08-24T12:44:39;100621.53;;;26.55;51.65
77333;BME280;66408;51.326;12.070;2023-08-24T12:47:06;100617.06;;;26.68;52.15
77333;BME280;66408;51.326;12.070;2023-08-24T12:49:32;100607.50;;;26.65;48.11
77333;BME280;66408;51.326;12.070;2023-08-24T12:51:59;100606.19;;;26.88;50.51
77333;BME280;66408;51.326;12.070;2023-08-24T12:54:25;100603.06;;;26.82;49.04